Time;durP1;ratioP1;P1;durP2;ratioP2;P2;SDS_P1;SDS_P2;PMS_P1;PMS_P2;Temp;Humidity;BMP_temperature;BMP_pressure;BME280_temperature;BME280_humidity;BME280_pressure;Samples;Min_cycle;Max_cycle;Signal;HPM_P1;HPM_P2
2023/08/19 00:01:18;;;;;;;37.95;28.35;;;;;;;20.93;100.00;101088.88;5021637;28;20504;-72
2023/08/19 00:03:44;;;;;;;35.13;24.73;;;;;;;20.90;100.00;101089.22;5008333;28;20500;-70
2023/08/19 00:06:12;;;;;;;33.17;25.08;;;;;;;20.84;100.00;101088.03;5022087;28;20053;-71
2023/08/19 00:08:38;;;;;;;32.17;23.73;;;;;;;20.84;100.00;101082.50;5028753;28;20547;-72
2023/08/19 00:11:04;;;;;;;30.55;22.15;;;;;;;20.84;100.00;101082.50;5018983;28;20053;-71
2023/08/19 00:13:30;;;;;;;36.03;28.42;;;;;;;20.86;100.00;101074.88;5027998;28;20053;-72
2023/08/19 00:15:56;;;;;;;27.08;21.15;;;;;;;20.82;100.00;101080.91;5011192;28;20030;-72
2023/08/19 00:18:21;;;;;;;29.55;22.10;;;;;;;20.82;100.00;101084.53;5009852;28;20073;-72
2023/08/19 00:20:47;;;;;;;33.70;25.45;;;;;;;20.83;100.00;101082.66;5009394;28;20478;-71
2023/08/19 00:23:15;;;;;;;29.75;21.98;;;;;;;20.78;100.00;101080.41;5010377;28;20084;-71
2023/08/19 00:25:40;;;;;;;31.77;23.60;;;;;;;20.76;100.00;101090.78;5010412;28;20034;-71
2023/08/19 00:28:06;;;;;;;32.05;23.23;;;;;;;20.74;100.00;101087.31;5009024;28;20044;-71
2023/08/19 00:30:31;;;;;;;36.47;26.92;;;;;;;20.74;100.00;101086.44;5022494;28;20029;-71
2023/08/19 00:32:56;;;;;;;35.50;23.75;;;;;;;20.72;100.00;101083.84;5029420;28;20095;-71
2023/08/19 00:35:22;;;;;;;30.52;23.13;;;;;;;20.75;100.00;101082.63;5025975;28;20068;-72
2023/08/19 00:37:47;;;;;;;30.38;22.63;;;;;;;20.73;100.00;101081.94;5026456;28;20030;-72
2023/08/19 00:40:14;;;;;;;32.63;25.52;;;;;;;20.70;100.00;101079.53;5029846;28;20045;-72
2023/08/19 00:42:40;;;;;;;34.38;24.38;;;;;;;20.69;100.00;101081.41;5029341;28;20021;-72
2023/08/19 00:45:06;;;;;;;31.92;23.80;;;;;;;20.69;100.00;101084.19;5017564;28;20108;-71
2023/08/19 00:47:32;;;;;;;36.90;26.63;;;;;;;20.71;100.00;101082.13;5018844;28;20080;-71
2023/08/19 00:49:57;;;;;;;32.05;23.63;;;;;;;20.69;100.00;101081.41;5024475;28;20045;-70
2023/08/19 00:52:23;;;;;;;29.80;22.98;;;;;;;20.68;100.00;101082.47;5009220;28;20498;-72
2023/08/19 00:54:48;;;;;;;31.05;22.70;;;;;;;20.67;100.00;101082.66;5007982;28;20033;-73
2023/08/19 00:57:14;;;;;;;28.75;21.33;;;;;;;20.64;100.00;101083.84;5007590;28;20037;-69
2023/08/19 00:59:39;;;;;;;35.20;24.80;;;;;;;20.65;100.00;101080.03;5009541;28;20192;-72
2023/08/19 01:02:04;;;;;;;34.13;24.05;;;;;;;20.63;100.00;101080.22;5009297;28;20422;-72
2023/08/19 01:04:30;;;;;;;32.33;23.10;;;;;;;20.61;100.00;101079.53;5018123;28;20026;-70
2023/08/19 01:07:07;;;;;;;33.55;23.20;;;;;;;20.58;100.00;101073.47;5026762;28;20133;-72
2023/08/19 01:09:47;;;;;;;35.78;26.38;;;;;;;20.55;100.00;101068.28;5028769;28;20792;-72
2023/08/19 01:12:23;;;;;;;32.83;25.50;;;;;;;20.52;100.00;101072.25;5024387;28;20513;-72
2023/08/19 01:15:13;;;;;;;30.48;22.75;;;;;;;20.55;100.00;101063.59;5016834;28;20064;-72
2023/08/19 01:17:39;;;;;;;31.10;23.55;;;;;;;20.52;100.00;101065.88;5028029;28;20091;-72
2023/08/19 01:20:09;;;;;;;31.92;24.77;;;;;;;20.51;100.00;101062.22;5022216;28;20025;-72
2023/08/19 01:22:43;;;;;;;33.58;24.42;;;;;;;20.52;100.00;101063.97;5021680;28;20048;-72
2023/08/19 01:25:09;;;;;;;35.83;26.88;;;;;;;20.55;100.00;101059.97;5025252;28;20485;-71
2023/08/19 01:27:34;;;;;;;35.50;25.05;;;;;;;20.56;100.00;101065.34;5025475;28;20140;-72
2023/08/19 01:30:00;;;;;;;32.25;24.42;;;;;;;20.58;100.00;101062.41;5017297;28;20508;-72
2023/08/19 01:32:25;;;;;;;35.65;27.23;;;;;;;20.59;100.00;101053.94;5008164;28;20042;-72
2023/08/19 01:34:51;;;;;;;37.33;26.75;;;;;;;20.62;100.00;101049.97;5007977;28;20030;-71
2023/08/19 01:37:31;;;;;;;36.30;27.90;;;;;;;20.64;100.00;101042.38;5008184;28;20124;-72
2023/08/19 01:39:59;;;;;;;36.28;27.88;;;;;;;20.65;100.00;101038.56;5019210;28;20045;-72
2023/08/19 01:42:25;;;;;;;37.75;27.52;;;;;;;20.67;100.00;101032.88;5024871;28;20041;-72
2023/08/19 01:44:52;;;;;;;41.00;26.40;;;;;;;20.68;100.00;101038.22;5008721;28;20447;-72
2023/08/19 01:47:17;;;;;;;31.75;24.23;;;;;;;20.69;100.00;101034.41;5008024;28;20034;-72
2023/08/19 01:49:47;;;;;;;31.33;24.83;;;;;;;20.73;100.00;101041.34;5007577;28;20041;-71
2023/08/19 01:52:13;;;;;;;36.58;23.92;;;;;;;20.77;100.00;101030.81;5008768;28;20045;-72
2023/08/19 01:54:39;;;;;;;31.70;23.10;;;;;;;20.79;100.00;101028.72;5023688;28;20470;-71
2023/08/19 01:57:06;;;;;;;30.70;23.23;;;;;;;20.80;100.00;101028.56;5007666;28;20029;-72
2023/08/19 01:59:32;;;;;;;29.50;21.92;;;;;;;20.82;100.00;101036.66;5006688;28;20045;-71
2023/08/19 02:01:58;;;;;;;37.70;25.80;;;;;;;20.85;100.00;101036.34;5006999;28;20034;-71
2023/08/19 02:04:24;;;;;;;33.42;25.58;;;;;;;20.87;100.00;101025.94;5005996;28;20033;-72
2023/08/19 02:06:49;;;;;;;36.80;26.48;;;;;;;20.91;100.00;101029.25;5007880;28;20046;-72
2023/08/19 02:09:15;;;;;;;35.72;23.67;;;;;;;20.90;100.00;101028.38;5007938;28;20026;-71
2023/08/19 02:11:40;;;;;;;35.35;24.90;;;;;;;20.93;100.00;101030.78;5013574;28;20040;-70
2023/08/19 02:14:06;;;;;;;33.05;24.92;;;;;;;20.94;100.00;101024.22;5018917;28;20682;-72
2023/08/19 02:16:31;;;;;;;30.92;24.00;;;;;;;20.95;100.00;101022.31;5006784;28;20397;-72
2023/08/19 02:19:00;;;;;;;36.03;23.02;;;;;;;20.97;100.00;101026.63;5007578;28;20751;-72
2023/08/19 02:21:25;;;;;;;33.10;25.20;;;;;;;21.00;100.00;101025.44;5007929;28;20041;-72
2023/08/19 02:23:53;;;;;;;32.47;25.50;;;;;;;21.00;100.00;101018.00;5006348;28;20061;-73
2023/08/19 02:26:19;;;;;;;32.58;23.08;;;;;;;21.00;100.00;101012.47;5006134;28;20076;-72
2023/08/19 02:28:44;;;;;;;37.67;23.45;;;;;;;21.00;100.00;101018.00;5007626;28;20453;-70
2023/08/19 02:31:09;;;;;;;32.28;24.05;;;;;;;21.01;100.00;101011.41;5023010;28;20406;-73
2023/08/19 02:33:36;;;;;;;31.65;24.35;;;;;;;21.02;100.00;101010.38;5007775;28;20033;-70
2023/08/19 02:36:01;;;;;;;30.88;22.23;;;;;;;21.03;100.00;101000.16;5007514;28;20042;-72
2023/08/19 02:38:27;;;;;;;37.08;25.67;;;;;;;21.05;100.00;101006.41;5015185;28;20145;-72
2023/08/19 02:40:53;;;;;;;31.13;22.20;;;;;;;21.04;100.00;101002.78;5025975;28;20026;-71
2023/08/19 02:43:18;;;;;;;25.30;20.83;;;;;;;21.03;100.00;100997.41;5026756;28;20063;-72
2023/08/19 02:45:45;;;;;;;28.55;21.33;;;;;;;21.05;100.00;100998.97;5024626;28;20084;-71
2023/08/19 02:48:11;;;;;;;27.50;21.83;;;;;;;21.07;100.00;100996.88;5026257;28;20117;-72
2023/08/19 02:50:36;;;;;;;30.33;22.17;;;;;;;21.08;100.00;100992.22;5023746;28;20026;-72
2023/08/19 02:53:02;;;;;;;30.40;22.83;;;;;;;21.09;100.00;100996.72;5027011;28;20183;-72
2023/08/19 02:55:27;;;;;;;25.05;21.40;;;;;;;21.09;100.00;101008.63;5025235;28;20397;-72
2023/08/19 02:57:52;;;;;;;31.30;22.48;;;;;;;21.09;100.00;101003.09;5026864;28;20207;-72
2023/08/19 03:00:18;;;;;;;32.83;24.45;;;;;;;21.10;100.00;100993.75;5026657;28;20096;-72
2023/08/19 03:02:47;;;;;;;32.42;24.10;;;;;;;21.11;100.00;100997.38;5031210;28;20033;-69
2023/08/19 03:05:13;;;;;;;28.98;21.75;;;;;;;21.09;100.00;100994.81;5025796;28;20037;-71
2023/08/19 03:07:39;;;;;;;28.58;20.63;;;;;;;21.10;100.00;100993.75;5011826;28;20041;-72
2023/08/19 03:10:06;;;;;;;25.70;20.58;;;;;;;21.10;100.00;100999.28;5011187;28;20362;-71
2023/08/19 03:12:31;;;;;;;26.95;19.10;;;;;;;21.09;100.00;100997.56;4999976;28;20079;-72
2023/08/19 03:14:56;;;;;;;24.33;19.77;;;;;;;21.10;100.00;101001.19;5018660;28;20045;-72
2023/08/19 03:17:22;;;;;;;25.70;19.10;;;;;;;21.11;100.00;100995.47;5029545;28;20042;-72
2023/08/19 03:19:48;;;;;;;28.85;20.27;;;;;;;21.12;100.00;100990.81;5028154;28;20026;-72
2023/08/19 03:22:13;;;;;;;29.13;19.10;;;;;;;21.09;100.00;100989.28;5012874;28;20499;-69
2023/08/19 03:24:39;;;;;;;23.77;17.92;;;;;;;21.10;100.00;100984.59;5031261;28;20052;-72
2023/08/19 03:27:04;;;;;;;22.67;19.30;;;;;;;21.12;100.00;100985.28;5028886;28;20400;-72
2023/08/19 03:29:30;;;;;;;25.60;19.65;;;;;;;21.12;100.00;100990.81;5027772;28;20548;-72
2023/08/19 03:31:57;;;;;;;24.98;17.63;;;;;;;21.11;100.00;100989.09;5029420;28;20049;-72
2023/08/19 03:34:23;;;;;;;22.45;17.33;;;;;;;21.11;100.00;100986.31;5028710;28;20049;-72
2023/08/19 03:36:48;;;;;;;25.70;18.63;;;;;;;21.10;100.00;100985.47;5010888;28;20049;-72
2023/08/19 03:39:14;;;;;;;25.30;18.65;;;;;;;21.10;100.00;100998.44;5009175;28;20131;-72
2023/08/19 03:41:41;;;;;;;24.33;18.90;;;;;;;21.10;100.00;100988.22;5009791;28;20521;-73
2023/08/19 03:44:06;;;;;;;21.80;17.60;;;;;;;21.09;100.00;100986.50;5010644;28;20160;-72
2023/08/19 03:46:31;;;;;;;24.25;18.30;;;;;;;21.09;100.00;100997.56;5010369;28;20021;-70
2023/08/19 03:48:57;;;;;;;23.75;18.55;;;;;;;21.10;100.00;100998.44;4992123;28;20030;-72
2023/08/19 03:51:22;;;;;;;22.42;18.05;;;;;;;21.09;100.00;100994.81;5009236;28;20045;-72
2023/08/19 03:53:47;;;;;;;25.20;18.90;;;;;;;21.09;100.00;100989.28;5010317;28;20478;-72
2023/08/19 03:56:13;;;;;;;23.20;17.15;;;;;;;21.13;100.00;100989.78;5010699;28;20038;-73
2023/08/19 03:58:39;;;;;;;23.52;16.95;;;;;;;21.14;100.00;100995.13;5010197;28;20038;-71
2023/08/19 04:01:08;;;;;;;22.20;17.92;;;;;;;21.11;100.00;100989.94;5026803;28;20136;-72
2023/08/19 04:03:36;;;;;;;21.77;18.35;;;;;;;21.10;100.00;100982.69;5027149;28;20041;-71
2023/08/19 04:06:01;;;;;;;21.58;16.75;;;;;;;21.08;100.00;100997.75;5019391;28;20087;-72
2023/08/19 04:08:27;;;;;;;23.00;17.25;;;;;;;21.10;100.00;100996.53;5029846;28;20093;-72
2023/08/19 04:10:52;;;;;;;20.10;17.13;;;;;;;21.09;100.00;101000.34;5019989;28;20100;-72
2023/08/19 04:13:18;;;;;;;21.65;16.15;;;;;;;21.10;100.00;100998.44;5025774;28;20037;-72
2023/08/19 04:15:43;;;;;;;18.75;14.88;;;;;;;21.09;100.00;100994.81;5029180;28;20076;-72
2023/08/19 04:18:10;;;;;;;22.00;16.85;;;;;;;21.08;100.00;100993.09;5030065;28;20045;-71
2023/08/19 04:20:38;;;;;;;19.55;15.02;;;;;;;21.07;100.00;100999.63;5021797;28;20485;-72
2023/08/19 04:23:04;;;;;;;22.33;16.73;;;;;;;21.05;100.00;101004.50;5008635;28;20073;-72
2023/08/19 04:25:30;;;;;;;21.60;15.85;;;;;;;21.06;100.00;101002.59;5017728;28;20025;-72
2023/08/19 04:27:56;;;;;;;20.00;15.32;;;;;;;21.05;100.00;101003.63;5027596;28;20029;-71
2023/08/19 04:30:22;;;;;;;21.77;15.15;;;;;;;21.07;100.00;101007.94;5010758;28;20630;-73
2023/08/19 04:32:48;;;;;;;19.65;15.02;;;;;;;21.06;100.00;101002.59;5028087;28;20053;-72
2023/08/19 04:35:14;;;;;;;17.60;14.90;;;;;;;21.06;100.00;100999.81;5025190;28;20619;-71
2023/08/19 04:37:40;;;;;;;18.70;14.02;;;;;;;21.08;100.00;101006.06;5028416;28;20033;-72
2023/08/19 04:40:09;;;;;;;17.83;14.70;;;;;;;21.07;100.00;101012.59;5027874;28;20404;-72
2023/08/19 04:42:38;;;;;;;19.13;14.60;;;;;;;21.11;100.00;101009.31;5029514;28;20041;-72
2023/08/19 04:45:06;;;;;;;19.08;13.93;;;;;;;21.12;100.00;101013.84;5026467;28;20408;-71
2023/08/19 04:47:35;;;;;;;21.58;15.93;;;;;;;21.14;100.00;101011.75;5026113;28;20083;-72
2023/08/19 04:50:07;;;;;;;16.85;13.32;;;;;;;21.12;100.00;101012.94;5019760;28;20285;-72
2023/08/19 04:52:33;;;;;;;17.13;13.60;;;;;;;21.11;100.00;101019.53;5008917;28;20026;-72
2023/08/19 04:54:58;;;;;;;19.17;14.52;;;;;;;21.11;100.00;101003.78;5010041;28;20489;-71
2023/08/19 04:57:24;;;;;;;20.20;15.00;;;;;;;21.18;100.00;101016.94;5006960;28;20034;-72
2023/08/19 04:59:49;;;;;;;20.58;14.60;;;;;;;21.18;100.00;101005.88;5018653;28;20057;-71
2023/08/19 05:02:14;;;;;;;16.88;14.52;;;;;;;21.18;100.00;101003.09;5008788;28;20046;-70
2023/08/19 05:04:40;;;;;;;18.35;13.90;;;;;;;21.19;100.00;100997.38;5019276;28;20041;-72
2023/08/19 05:07:05;;;;;;;18.42;14.57;;;;;;;21.23;100.00;100998.75;5011469;28;20032;-72
2023/08/19 05:09:31;;;;;;;20.48;14.07;;;;;;;21.28;100.00;101001.84;4992003;28;20051;-72
2023/08/19 05:11:57;;;;;;;16.23;13.85;;;;;;;21.35;100.00;101010.31;5007185;28;20604;-72
2023/08/19 05:14:22;;;;;;;16.50;13.25;;;;;;;21.36;100.00;101015.72;5021424;28;20507;-72
2023/08/19 05:16:48;;;;;;;21.83;13.45;;;;;;;21.38;100.00;101018.28;5028458;28;20037;-72
2023/08/19 05:19:20;;;;;;;17.55;13.48;;;;;;;21.41;100.00;101008.78;5043944;28;20037;-72
2023/08/19 05:21:48;;;;;;;16.85;12.38;;;;;;;21.45;100.00;101016.56;5025908;28;20035;-72
2023/08/19 05:24:14;;;;;;;16.25;12.85;;;;;;;21.49;100.00;101017.03;5028290;28;20033;-69
2023/08/19 05:26:40;;;;;;;18.30;13.18;;;;;;;21.51;100.00;101023.28;5027367;28;20060;-72
2023/08/19 05:29:06;;;;;;;19.20;12.68;;;;;;;21.55;100.00;101028.28;5013409;28;20057;-72
2023/08/19 05:31:31;;;;;;;18.10;12.02;;;;;;;21.58;100.00;101032.56;5008345;28;20097;-71
2023/08/19 05:33:57;;;;;;;16.08;12.93;;;;;;;21.60;100.00;101022.19;5008267;28;20044;-72
2023/08/19 05:36:22;;;;;;;15.63;12.38;;;;;;;21.65;100.00;101028.94;5021877;28;20026;-71
2023/08/19 05:38:47;;;;;;;21.27;13.05;;;;;;;21.66;100.00;101018.72;5008349;28;20123;-71
2023/08/19 05:41:13;;;;;;;17.88;11.70;;;;;;;21.67;100.00;101019.56;5019036;28;20048;-72
2023/08/19 05:43:38;;;;;;;14.40;11.73;;;;;;;21.68;100.00;101024.06;5026815;28;20041;-72
2023/08/19 05:46:05;;;;;;;21.38;12.13;;;;;;;21.71;100.00;101018.16;5022158;28;20067;-72
2023/08/19 05:48:31;;;;;;;17.70;11.82;;;;;;;21.74;100.00;101034.44;5008323;28;20044;-72
2023/08/19 05:50:56;;;;;;;13.95;11.23;;;;;;;21.77;100.00;101029.38;5015323;28;20477;-72
2023/08/19 05:53:21;;;;;;;22.50;12.52;;;;;;;21.81;100.00;101024.34;5028014;28;20096;-71
2023/08/19 05:55:47;;;;;;;18.65;13.07;;;;;;;21.82;100.00;101023.31;5027283;28;20042;-72
2023/08/19 05:58:13;;;;;;;14.52;11.88;;;;;;;21.86;100.00;101022.75;5027617;28;20049;-71
2023/08/19 06:00:39;;;;;;;16.30;12.40;;;;;;;21.89;100.00;101029.84;5013964;28;20037;-71
2023/08/19 06:03:04;;;;;;;15.75;10.90;;;;;;;21.93;100.00;101038.69;5008071;28;20095;-72
2023/08/19 06:05:29;;;;;;;14.77;12.00;;;;;;;21.98;100.00;101036.22;5007474;28;20048;-71
2023/08/19 06:07:55;;;;;;;14.25;12.10;;;;;;;22.00;100.00;101050.75;5008128;28;20018;-72
2023/08/19 06:10:20;;;;;;;16.10;12.02;;;;;;;22.06;100.00;101047.28;5008518;28;20025;-72
2023/08/19 06:12:45;;;;;;;14.05;11.45;;;;;;;22.12;100.00;101052.13;5021563;28;20116;-72
2023/08/19 06:15:11;;;;;;;19.58;11.57;;;;;;;22.21;100.00;101051.03;5017311;28;20115;-72
2023/08/19 06:17:36;;;;;;;15.98;11.48;;;;;;;22.30;100.00;101047.16;5007956;28;20180;-72
2023/08/19 06:20:02;;;;;;;19.92;11.75;;;;;;;22.36;100.00;101060.28;5011924;28;20017;-72
2023/08/19 06:22:27;;;;;;;16.13;12.27;;;;;;;22.43;100.00;101049.34;5027614;28;20037;-72
2023/08/19 06:24:52;;;;;;;17.98;10.98;;;;;;;22.49;100.00;101056.06;5027484;28;20048;-72
2023/08/19 06:27:18;;;;;;;21.52;11.90;;;;;;;22.57;100.00;101053.19;5018737;28;20704;-71
2023/08/19 06:29:43;;;;;;;15.98;11.23;;;;;;;22.61;100.00;101057.34;5013842;28;20041;-70
2023/08/19 06:32:09;;;;;;;15.10;10.68;;;;;;;22.70;100.00;101063.69;5009243;28;20560;-72
2023/08/19 06:34:35;;;;;;;15.23;11.35;;;;;;;22.78;100.00;101072.81;5005931;28;20041;-72
2023/08/19 06:37:03;;;;;;;12.45;10.93;;;;;;;22.88;100.00;101064.22;5007508;28;20497;-72
2023/08/19 06:39:32;;;;;;;15.88;11.48;;;;;;;23.00;100.00;101076.66;5007053;28;20038;-72
2023/08/19 06:42:03;;;;;;;12.60;10.93;;;;;;;23.12;100.00;101077.06;5006949;28;20038;-72
2023/08/19 06:44:30;;;;;;;;;;;;;;;23.23;100.00;101078.53;5007894;28;20037;-72
2023/08/19 06:46:57;;;;;;;16.00;11.45;;;;;;;23.32;100.00;101085.75;5012929;28;19912;-72
2023/08/19 06:49:23;;;;;;;14.65;11.90;;;;;;;23.41;100.00;101084.63;5026695;28;20069;-72
2023/08/19 06:51:49;;;;;;;18.02;13.07;;;;;;;23.47;100.00;101085.75;5010130;28;20060;-72
2023/08/19 06:54:15;;;;;;;21.13;14.10;;;;;;;23.47;98.40;101091.31;5007209;28;20037;-70
2023/08/19 06:56:51;;;;;;;19.30;13.70;;;;;;;23.47;97.55;101088.53;5012566;28;20037;-72
2023/08/19 06:59:23;;;;;;;18.63;13.05;;;;;;;23.49;97.34;101097.53;5011299;28;20077;-72
2023/08/19 07:01:53;;;;;;;21.65;14.13;;;;;;;23.51;98.46;101090.75;5006504;28;20068;-72
2023/08/19 07:04:22;;;;;;;24.52;15.30;;;;;;;23.53;98.36;101096.97;5006901;28;20485;-72
2023/08/19 07:06:49;;;;;;;27.35;16.27;;;;;;;23.53;96.23;101098.88;5006157;28;20109;-72
2023/08/19 07:09:16;;;;;;;27.42;13.90;;;;;;;23.55;97.30;101099.53;5007233;28;20041;-72
2023/08/19 07:11:42;;;;;;;18.77;12.10;;;;;;;23.54;95.99;101098.69;5013017;28;20465;-73
2023/08/19 07:14:08;;;;;;;22.25;13.20;;;;;;;23.59;97.12;101100.88;5017814;28;20033;-72
2023/08/19 07:16:34;;;;;;;15.43;11.27;;;;;;;23.61;97.04;101104.34;5007437;28;20104;-72
2023/08/19 07:19:02;;;;;;;13.45;11.23;;;;;;;23.64;95.93;101092.88;5009619;28;20056;-72
2023/08/19 07:21:28;;;;;;;12.98;9.48;;;;;;;23.76;94.32;101096.06;5018815;28;20065;-70
2023/08/19 07:23:58;;;;;;;19.60;11.48;;;;;;;23.81;95.70;101099.97;5018711;28;20481;-72
2023/08/19 07:26:25;;;;;;;16.77;10.52;;;;;;;23.99;95.32;101107.06;5019480;28;20037;-72
2023/08/19 07:28:51;;;;;;;18.50;10.52;;;;;;;24.19;93.89;101103.50;5018582;28;20112;-70
2023/08/19 07:31:17;;;;;;;26.95;11.80;;;;;;;24.43;92.04;101109.81;5024743;28;20475;-70
2023/08/19 07:33:42;;;;;;;15.13;9.38;;;;;;;24.59;88.27;101108.72;5024606;28;20031;-71
2023/08/19 07:36:08;;;;;;;13.63;9.90;;;;;;;24.69;89.45;101096.19;5024406;28;20108;-72
2023/08/19 07:38:33;;;;;;;12.45;9.50;;;;;;;24.86;89.93;101121.88;5006798;28;20029;-72
2023/08/19 07:40:58;;;;;;;14.35;8.50;;;;;;;24.97;87.78;101130.75;5006161;28;20025;-72
2023/08/19 07:43:24;;;;;;;16.23;9.15;;;;;;;25.09;88.62;101129.19;5006554;28;20038;-72
2023/08/19 07:45:49;;;;;;;12.05;8.40;;;;;;;25.23;88.45;101144.09;5007828;28;20113;-72
2023/08/19 07:48:14;;;;;;;10.40;8.80;;;;;;;25.31;89.34;101150.38;5010231;28;20522;-72
2023/08/19 07:50:40;;;;;;;13.90;9.35;;;;;;;25.46;84.52;101141.97;5010279;28;20473;-72
2023/08/19 07:53:05;;;;;;;11.38;9.10;;;;;;;25.56;86.85;101142.47;5009044;28;20149;-73
2023/08/19 07:55:31;;;;;;;14.98;8.80;;;;;;;25.73;87.49;101144.94;5020310;28;20033;-73
2023/08/19 07:57:56;;;;;;;16.60;8.88;;;;;;;25.77;85.01;101151.84;5018006;28;20037;-72
2023/08/19 08:00:21;;;;;;;13.73;9.57;;;;;;;25.74;87.03;101149.44;5009750;28;20069;-71
2023/08/19 08:02:47;;;;;;;12.18;8.77;;;;;;;25.72;86.80;101146.00;5029564;28;20041;-71
2023/08/19 08:05:12;;;;;;;13.95;9.15;;;;;;;25.67;86.79;101147.47;5022992;28;20146;-72
2023/08/19 08:07:37;;;;;;;14.25;9.07;;;;;;;25.64;84.14;101136.72;5008838;28;20034;-72
2023/08/19 08:10:03;;;;;;;14.02;9.38;;;;;;;25.73;85.02;101129.06;5021868;28;20045;-72
2023/08/19 08:12:30;;;;;;;10.82;9.15;;;;;;;25.79;85.36;101141.38;5027504;28;20037;-72
2023/08/19 08:14:56;;;;;;;11.60;8.65;;;;;;;25.88;85.92;101146.59;5029540;28;20077;-72
2023/08/19 08:17:21;;;;;;;12.20;9.40;;;;;;;25.88;87.19;101156.84;5025647;28;20060;-73
2023/08/19 08:19:47;;;;;;;12.77;9.15;;;;;;;25.93;86.23;101148.78;5028773;28;20045;-71
2023/08/19 08:22:12;;;;;;;14.43;9.10;;;;;;;25.92;86.09;101150.66;5015235;28;20385;-72
2023/08/19 08:24:37;;;;;;;10.23;9.15;;;;;;;25.88;86.67;101151.28;5015071;28;20753;-70
2023/08/19 08:27:03;;;;;;;11.85;8.65;;;;;;;25.83;86.11;101156.59;5014105;28;20095;-73
2023/08/19 08:29:29;;;;;;;15.23;8.40;;;;;;;25.81;86.25;101167.97;5009293;28;20049;-71
2023/08/19 08:31:54;;;;;;;13.68;8.35;;;;;;;25.78;86.26;101170.28;5011801;28;20132;-72
2023/08/19 08:34:19;;;;;;;13.45;9.52;;;;;;;25.76;86.11;101184.44;5023692;28;20041;-73
2023/08/19 08:36:45;;;;;;;14.85;9.38;;;;;;;25.78;85.85;101179.53;5026577;28;20457;-73
2023/08/19 08:39:10;;;;;;;14.68;9.40;;;;;;;25.76;84.13;101172.44;5029765;28;20029;-72
2023/08/19 08:41:39;;;;;;;9.93;8.90;;;;;;;25.75;86.41;101209.72;5015716;28;20046;-73
2023/08/19 08:44:06;;;;;;;12.57;9.82;;;;;;;25.68;85.70;101202.13;5022465;28;20389;-72
2023/08/19 08:46:33;;;;;;;18.35;10.15;;;;;;;25.65;86.86;101208.13;5011788;28;20441;-70
2023/08/19 08:49:00;;;;;;;17.30;9.98;;;;;;;25.64;87.74;101198.03;5028285;28;20021;-72
2023/08/19 08:51:26;;;;;;;13.05;9.63;;;;;;;25.64;86.38;101198.03;5028435;28;20128;-73
2023/08/19 08:53:52;;;;;;;15.50;9.35;;;;;;;25.66;86.86;101207.06;5046066;28;20084;-72
2023/08/19 08:56:18;;;;;;;14.50;10.52;;;;;;;25.68;86.80;101215.22;5042820;28;20038;-72
2023/08/19 08:58:44;;;;;;;16.55;9.13;;;;;;;25.75;86.59;101210.56;5027490;28;20136;-71
2023/08/19 09:01:10;;;;;;;13.50;8.85;;;;;;;25.75;87.20;101216.16;5011497;28;20121;-72
2023/08/19 09:03:39;;;;;;;11.15;8.90;;;;;;;25.75;86.58;101223.66;5008396;28;20061;-70
2023/08/19 09:06:18;;;;;;;12.55;8.73;;;;;;;25.79;86.49;101225.88;5009133;28;20477;-72
2023/08/19 09:08:54;;;;;;;11.55;8.27;;;;;;;25.84;86.19;101237.28;5009266;28;20470;-72
2023/08/19 09:11:25;;;;;;;14.13;8.80;;;;;;;25.90;85.95;101238.38;5013612;28;20041;-72
2023/08/19 09:13:58;;;;;;;12.93;8.75;;;;;;;25.99;85.84;101241.88;5028412;28;20496;-73
2023/08/19 09:16:23;;;;;;;12.15;8.95;;;;;;;26.06;85.55;101240.00;5008786;28;20038;-72
2023/08/19 09:18:51;;;;;;;12.10;9.27;;;;;;;26.25;86.66;101253.22;5007859;28;20451;-73
2023/08/19 09:21:16;;;;;;;15.38;9.15;;;;;;;26.48;85.01;101252.09;5014267;28;20107;-73
2023/08/19 09:23:41;;;;;;;11.52;9.00;;;;;;;26.69;84.49;101258.47;5007728;28;20029;-72
2023/08/19 09:26:10;;;;;;;12.07;9.40;;;;;;;26.81;82.13;101266.22;5007231;28;20042;-70
2023/08/19 09:28:35;;;;;;;16.65;10.73;;;;;;;26.90;81.87;101268.63;5006657;28;20038;-73
2023/08/19 09:31:00;;;;;;;13.50;9.55;;;;;;;27.05;83.36;101268.50;5007053;28;20632;-73
2023/08/19 09:33:26;;;;;;;15.38;10.35;;;;;;;27.16;82.26;101272.66;5007848;28;20055;-72
2023/08/19 09:35:57;;;;;;;13.95;11.60;;;;;;;27.25;80.96;101276.97;5006415;28;20121;-73
2023/08/19 09:38:26;;;;;;;16.88;11.23;;;;;;;27.36;80.65;101272.69;5007220;28;20041;-72
2023/08/19 09:41:03;;;;;;;15.73;11.50;;;;;;;27.48;80.01;101293.38;5007953;28;20029;-72
2023/08/19 09:43:28;;;;;;;14.18;11.82;;;;;;;27.56;78.14;101286.69;5007895;28;20041;-72
2023/08/19 09:46:00;;;;;;;15.38;11.52;;;;;;;27.64;79.86;101297.69;5018150;28;21051;-73
2023/08/19 09:48:26;;;;;;;17.83;13.27;;;;;;;27.69;78.89;101289.53;5007619;28;20505;-72
2023/08/19 09:50:52;;;;;;;15.52;12.02;;;;;;;27.96;80.87;101293.22;5007316;28;20033;-72
2023/08/19 09:53:18;;;;;;;17.02;11.98;;;;;;;28.37;79.78;101306.16;5006737;28;20137;-71
2023/08/19 09:55:50;;;;;;;15.52;11.70;;;;;;;28.56;78.22;101313.66;5007823;28;20045;-70
2023/08/19 09:58:16;;;;;;;18.83;11.48;;;;;;;28.78;77.06;101316.22;5007148;28;20406;-72
2023/08/19 10:00:42;;;;;;;21.15;12.23;;;;;;;28.97;74.58;101310.56;5021858;28;20051;-72
2023/08/19 10:03:08;;;;;;;16.58;11.07;;;;;;;29.09;71.79;101323.88;5027506;28;20044;-73
2023/08/19 10:05:38;;;;;;;13.13;10.50;;;;;;;29.39;74.80;101329.78;5021483;28;20536;-72
2023/08/19 10:08:07;;;;;;;17.92;11.63;;;;;;;29.42;73.19;101327.38;5008024;28;20034;-71
2023/08/19 10:10:37;;;;;;;13.90;11.48;;;;;;;29.29;71.00;101335.03;5016284;28;20063;-71
2023/08/19 10:13:03;;;;;;;18.25;11.07;;;;;;;28.97;70.67;101341.38;5006046;28;20044;-72
2023/08/19 10:15:32;;;;;;;16.77;11.02;;;;;;;28.78;71.14;101333.00;5007370;28;20042;-72
2023/08/19 10:18:00;;;;;;;15.43;10.18;;;;;;;28.81;72.21;101338.16;5007721;28;20533;-71
2023/08/19 10:20:30;;;;;;;15.07;10.25;;;;;;;28.94;72.90;101338.13;5009576;28;20143;-73
2023/08/19 10:23:01;;;;;;;14.48;11.00;;;;;;;28.93;71.99;101337.25;5007512;28;20057;-73
2023/08/19 10:25:29;;;;;;;14.63;11.55;;;;;;;29.07;71.47;101348.47;5016484;28;20092;-69
2023/08/19 10:28:21;;;;;;;16.98;12.15;;;;;;;29.20;73.45;101357.69;5025694;28;20044;-70
2023/08/19 10:31:03;;;;;;;14.80;11.20;;;;;;;29.37;73.17;101351.56;5024559;28;20064;-70
2023/08/19 10:33:36;;;;;;;16.70;10.65;;;;;;;29.36;70.93;101350.69;5021651;28;20041;-72
2023/08/19 10:36:04;;;;;;;15.13;11.23;;;;;;;29.29;69.50;101354.63;5018758;28;20091;-70
2023/08/19 10:38:55;;;;;;;16.65;10.07;;;;;;;29.60;73.00;101353.84;5007595;28;20042;-72
2023/08/19 10:41:30;;;;;;;13.85;9.57;;;;;;;30.23;70.67;101354.72;5007488;28;20482;-72
2023/08/19 10:44:00;;;;;;;13.80;9.48;;;;;;;30.28;66.69;101361.63;5016251;28;20047;-72
2023/08/19 10:46:55;;;;;;;11.57;9.73;;;;;;;30.08;67.85;101372.94;5021792;28;20068;-73
2023/08/19 10:49:36;;;;;;;20.52;9.55;;;;;;;29.88;67.41;101385.16;5009027;28;20086;-72
2023/08/19 10:52:05;;;;;;;14.57;10.88;;;;;;;29.58;66.66;101387.75;5019999;28;20041;-71
2023/08/19 10:54:40;;;;;;;13.05;10.18;;;;;;;29.33;69.10;101404.44;5006932;28;20112;-71
2023/08/19 10:57:08;;;;;;;15.45;11.07;;;;;;;29.08;68.11;101404.28;5016505;28;20049;-72
2023/08/19 10:59:34;;;;;;;14.07;9.45;;;;;;;28.96;70.37;101408.84;5018744;28;20041;-72
2023/08/19 11:02:00;;;;;;;15.52;10.20;;;;;;;28.90;70.53;101412.47;5025293;28;20099;-73
2023/08/19 11:04:26;;;;;;;12.15;9.60;;;;;;;28.85;70.29;101415.94;5017133;28;20042;-72
2023/08/19 11:06:52;;;;;;;11.93;9.90;;;;;;;28.78;71.61;101425.44;5014180;28;20053;-72